Time;durP1;ratioP1;P1;durP2;ratioP2;P2;SDS_P1;SDS_P2;PMS_P1;PMS_P2;Temp;Humidity;BMP_temperature;BMP_pressure;BME280_temperature;BME280_humidity;BME280_pressure;Samples;Min_cycle;Max_cycle;Signal;HPM_P1;HPM_P2
2023/10/05 00:02:20;;;;;;;6.07;1.83;;;13.50;99.90;;;;;;4961579;28;20039;-81
2023/10/05 00:04:45;;;;;;;7.47;2.10;;;13.50;99.90;;;;;;4978064;28;20127;-81
2023/10/05 00:07:28;;;;;;;6.05;1.80;;;13.50;99.90;;;;;;4977579;28;20122;-81
2023/10/05 00:09:56;;;;;;;5.85;1.80;;;13.50;99.90;;;;;;4963385;28;20039;-80
2023/10/05 00:12:22;;;;;;;10.75;2.03;;;13.50;99.90;;;;;;4961282;28;20529;-81
2023/10/05 00:15:14;;;;;;;5.60;2.00;;;13.50;99.90;;;;;;4977064;28;20572;-80
2023/10/05 00:17:38;;;;;;;4.88;1.80;;;13.50;99.90;;;;;;4991340;28;20058;-81
2023/10/05 00:20:15;;;;;;;6.90;1.85;;;13.50;99.90;;;;;;4946519;28;20556;-81
2023/10/05 00:22:40;;;;;;;5.60;1.75;;;13.50;99.90;;;;;;4962705;28;20046;-81
2023/10/05 00:25:09;;;;;;;6.43;1.90;;;13.50;99.90;;;;;;4977856;28;20486;-81
2023/10/05 00:27:36;;;;;;;8.40;1.98;;;13.50;99.90;;;;;;4962681;28;20417;-81
2023/10/05 00:30:02;;;;;;;7.82;1.90;;;13.50;99.90;;;;;;4972745;28;20058;-81
2023/10/05 00:33:02;;;;;;;6.95;1.90;;;13.50;99.90;;;;;;4957243;28;20039;-81
2023/10/05 00:35:32;;;;;;;5.57;1.70;;;13.50;99.90;;;;;;4975127;28;20107;-81
2023/10/05 00:38:08;;;;;;;6.25;1.88;;;13.50;99.90;;;;;;4978962;28;20078;-81
2023/10/05 00:40:36;;;;;;;6.35;1.98;;;13.40;99.90;;;;;;4975274;28;20118;-81
2023/10/05 00:46:03;;;;;;;7.18;2.00;;;13.40;99.90;;;;;;4941135;28;20047;-81
2023/10/05 00:48:35;;;;;;;6.80;1.88;;;13.40;99.90;;;;;;4959994;28;20070;-81
2023/10/05 00:51:23;;;;;;;7.38;2.13;;;13.50;99.90;;;;;;4976771;28;20294;-81
2023/10/05 00:53:50;;;;;;;8.90;2.20;;;13.40;99.90;;;;;;4976880;28;20098;-81
2023/10/05 00:56:17;;;;;;;6.78;1.90;;;13.40;99.90;;;;;;4946517;28;20047;-81
2023/10/05 00:58:44;;;;;;;6.28;1.88;;;13.40;99.90;;;;;;4992439;28;20050;-81
2023/10/05 01:01:22;;;;;;;6.72;1.98;;;13.40;99.90;;;;;;4960005;28;20186;-81
2023/10/05 01:09:24;;;;;;;6.20;2.13;;;13.40;99.90;;;;;;4946124;28;20126;-81
2023/10/05 01:11:54;;;;;;;7.85;2.10;;;13.40;99.90;;;;;;4976419;28;20479;-81
2023/10/05 01:14:24;;;;;;;8.07;2.25;;;13.40;99.90;;;;;;4961886;28;20047;-81
2023/10/05 01:16:54;;;;;;;7.68;1.92;;;13.40;99.90;;;;;;4961082;28;20036;-81
2023/10/05 01:19:19;;;;;;;7.47;2.05;;;13.40;99.90;;;;;;4961066;28;20043;-81
2023/10/05 01:21:45;;;;;;;9.07;2.22;;;13.40;99.90;;;;;;4961854;28;20417;-81
2023/10/05 01:24:11;;;;;;;8.52;1.92;;;13.40;99.90;;;;;;4959641;28;20137;-81
2023/10/05 01:26:37;;;;;;;6.22;1.83;;;13.50;99.90;;;;;;4944385;28;20039;-81
2023/10/05 01:29:04;;;;;;;6.78;2.03;;;13.50;99.90;;;;;;4962207;28;20102;-81
2023/10/05 01:31:30;;;;;;;6.45;1.92;;;13.50;99.90;;;;;;4945241;29;20082;-81
2023/10/05 01:33:59;;;;;;;7.35;2.00;;;13.50;99.90;;;;;;4958250;28;20448;-80
2023/10/05 01:36:25;;;;;;;7.53;2.10;;;13.50;99.90;;;;;;4977380;28;20101;-81
2023/10/05 01:38:54;;;;;;;6.10;2.10;;;13.50;99.90;;;;;;4978071;28;20482;-80
2023/10/05 01:41:22;;;;;;;7.47;2.00;;;13.50;99.90;;;;;;4944925;28;20613;-81
2023/10/05 01:43:49;;;;;;;7.25;2.00;;;13.40;99.90;;;;;;4943385;28;20123;-81
2023/10/05 01:46:15;;;;;;;6.95;1.85;;;13.40;99.90;;;;;;4944092;28;20067;-80
2023/10/05 01:48:41;;;;;;;9.48;2.35;;;13.40;99.90;;;;;;4946766;28;20047;-81
2023/10/05 01:51:23;;;;;;;7.30;2.05;;;13.40;99.90;;;;;;4944695;28;20243;-81
2023/10/05 01:53:52;;;;;;;7.85;2.55;;;13.40;99.90;;;;;;4960872;28;20075;-81
2023/10/05 01:56:20;;;;;;;5.95;2.10;;;13.40;99.90;;;;;;4995077;28;20065;-81
2023/10/05 01:58:50;;;;;;;9.55;2.30;;;13.40;99.90;;;;;;4945943;28;20031;-81
2023/10/05 02:01:18;;;;;;;6.95;2.10;;;13.40;99.90;;;;;;4978268;28;20421;-80
2023/10/05 02:03:44;;;;;;;7.72;1.92;;;13.50;99.90;;;;;;4944292;28;20442;-81
2023/10/05 02:06:15;;;;;;;7.35;1.80;;;13.50;99.90;;;;;;4977272;28;20043;-81
2023/10/05 02:08:42;;;;;;;9.13;2.15;;;13.50;99.90;;;;;;4960227;28;20527;-81
2023/10/05 02:11:09;;;;;;;6.85;2.10;;;13.50;99.90;;;;;;4961780;28;20043;-81
2023/10/05 02:13:38;;;;;;;6.63;2.00;;;13.50;99.90;;;;;;4934111;29;20046;-80
2023/10/05 02:16:10;;;;;;;6.38;2.10;;;13.50;99.90;;;;;;4979684;28;20556;-80
2023/10/05 02:18:38;;;;;;;6.22;1.90;;;13.50;99.90;;;;;;4965569;28;20041;-81
2023/10/05 02:23:34;;;;;;;7.65;2.15;;;13.50;99.90;;;;;;4967888;28;20467;-80
2023/10/05 02:26:10;;;;;;;7.65;2.45;;;13.50;99.90;;;;;;4960932;28;20149;-81
2023/10/05 02:28:39;;;;;;;10.13;2.20;;;13.50;99.90;;;;;;4980096;28;20039;-81
2023/10/05 02:31:12;;;;;;;7.50;2.10;;;13.50;99.90;;;;;;4978249;28;20043;-81
2023/10/05 02:33:40;;;;;;;7.72;2.00;;;13.60;99.90;;;;;;4965947;28;20131;-81
2023/10/05 02:36:26;;;;;;;7.13;2.20;;;13.60;99.90;;;;;;4980192;28;20047;-81
2023/10/05 02:39:01;;;;;;;5.72;1.73;;;13.50;99.90;;;;;;4981392;28;20053;-81
2023/10/05 02:41:38;;;;;;;8.18;2.13;;;13.50;99.90;;;;;;4946731;28;20069;-81
2023/10/05 02:44:17;;;;;;;6.70;2.22;;;13.60;99.90;;;;;;4977959;28;20057;-81
2023/10/05 02:46:47;;;;;;;8.48;1.90;;;13.50;99.90;;;;;;4963520;28;20126;-81
2023/10/05 02:49:15;;;;;;;7.25;1.75;;;13.50;99.90;;;;;;4980229;28;20085;-81
2023/10/05 02:51:43;;;;;;;7.90;2.17;;;13.50;99.90;;;;;;4963985;28;20051;-81
2023/10/05 02:54:10;;;;;;;5.97;2.00;;;13.50;99.90;;;;;;4982028;28;20050;-81
2023/10/05 02:56:37;;;;;;;6.75;2.00;;;13.60;99.90;;;;;;4978648;28;20117;-81
2023/10/05 02:59:07;;;;;;;11.30;2.20;;;13.50;99.90;;;;;;4995792;28;20133;-81
2023/10/05 03:01:34;;;;;;;7.68;2.10;;;13.60;99.90;;;;;;4977137;28;20038;-81
2023/10/05 03:04:09;;;;;;;6.63;2.03;;;13.50;99.90;;;;;;4982076;28;20031;-81
2023/10/05 03:06:36;;;;;;;6.07;1.90;;;13.60;99.90;;;;;;4978459;28;20035;-81
2023/10/05 03:09:07;;;;;;;9.25;2.83;;;13.60;99.90;;;;;;4959863;28;20375;-81
2023/10/05 03:11:40;;;;;;;7.25;1.98;;;13.60;99.90;;;;;;4961056;28;20058;-81
2023/10/05 03:14:09;;;;;;;9.82;2.20;;;13.50;99.90;;;;;;4964466;28;20046;-81
2023/10/05 03:16:43;;;;;;;7.60;1.95;;;13.60;99.90;;;;;;4966237;28;20505;-81
2023/10/05 03:19:20;;;;;;;7.93;2.08;;;13.60;99.90;;;;;;4996740;28;21949;-81
2023/10/05 03:21:50;;;;;;;8.43;2.72;;;13.60;99.90;;;;;;4981027;28;20039;-81
2023/10/05 03:24:19;;;;;;;8.27;2.10;;;13.70;99.90;;;;;;4947469;28;20046;-81
2023/10/05 03:26:47;;;;;;;10.98;2.38;;;13.70;99.90;;;;;;4964507;28;20047;-81
2023/10/05 03:29:12;;;;;;;8.98;2.13;;;13.70;99.90;;;;;;4978408;28;20047;-81
2023/10/05 03:31:43;;;;;;;8.95;2.15;;;13.70;99.90;;;;;;4946375;28;21102;-81
2023/10/05 03:34:12;;;;;;;7.50;2.05;;;13.70;99.90;;;;;;4980207;28;20766;-81
2023/10/05 03:36:38;;;;;;;9.00;2.40;;;13.80;99.90;;;;;;4963319;28;20051;-81
2023/10/05 03:39:07;;;;;;;6.50;2.10;;;13.80;99.90;;;;;;4944600;28;20514;-81
2023/10/05 03:41:38;;;;;;;8.27;2.20;;;13.80;99.90;;;;;;4962864;28;20073;-81
2023/10/05 03:44:07;;;;;;;6.28;1.70;;;13.90;99.90;;;;;;4961124;28;20059;-81
2023/10/05 03:46:34;;;;;;;9.23;2.40;;;13.90;99.90;;;;;;4998391;28;20075;-81
2023/10/05 03:49:02;;;;;;;8.52;2.20;;;13.90;99.90;;;;;;4979726;28;20035;-81
2023/10/05 03:51:31;;;;;;;10.88;2.47;;;14.00;99.90;;;;;;4976725;28;20118;-81
2023/10/05 03:53:57;;;;;;;7.18;2.20;;;13.90;99.90;;;;;;4948518;28;20414;-81
2023/10/05 03:56:26;;;;;;;9.40;2.20;;;14.00;99.90;;;;;;4979019;28;20040;-81
2023/10/05 03:58:54;;;;;;;9.48;2.17;;;14.00;99.90;;;;;;4946048;28;20118;-81
2023/10/05 04:01:22;;;;;;;9.98;2.47;;;14.60;99.90;;;;;;4973769;28;20141;-81
2023/10/05 04:03:49;;;;;;;8.90;2.30;;;14.00;99.90;;;;;;4962357;28;20057;-81
2023/10/05 04:06:18;;;;;;;8.50;2.20;;;14.00;99.90;;;;;;4962147;28;20039;-81
2023/10/05 04:08:49;;;;;;;10.88;2.38;;;14.00;99.90;;;;;;4962138;28;20039;-81
2023/10/05 04:11:17;;;;;;;8.38;2.28;;;14.00;99.90;;;;;;4977429;28;20134;-81
2023/10/05 04:13:43;;;;;;;7.78;2.00;;;14.00;99.90;;;;;;4963549;28;20513;-81
2023/10/05 04:16:21;;;;;;;7.40;2.13;;;13.90;99.90;;;;;;4979974;28;20040;-81
2023/10/05 04:18:49;;;;;;;7.47;2.22;;;13.90;99.90;;;;;;4963886;28;21395;-81
2023/10/05 04:21:18;;;;;;;9.05;1.90;;;13.90;99.90;;;;;;4976035;28;20035;-81
2023/10/05 04:23:49;;;;;;;8.60;2.25;;;13.90;99.90;;;;;;4977540;28;20098;-81
2023/10/05 04:26:25;;;;;;;9.32;2.40;;;13.90;99.90;;;;;;4943375;28;20051;-81
2023/10/05 04:28:54;;;;;;;8.27;2.35;;;13.90;99.90;;;;;;4961153;28;20052;-81
2023/10/05 04:31:26;;;;;;;9.27;2.22;;;14.00;99.90;;;;;;4975400;28;20126;-81
2023/10/05 04:33:54;;;;;;;9.52;2.42;;;14.00;99.90;;;;;;4955730;28;20043;-81
2023/10/05 04:36:22;;;;;;;6.90;1.90;;;14.00;99.90;;;;;;4945293;28;20027;-81
2023/10/05 04:38:55;;;;;;;7.93;2.00;;;14.00;99.90;;;;;;4978104;28;20042;-82
2023/10/05 04:41:28;;;;;;;10.02;2.25;;;14.00;99.90;;;;;;4942306;28;20572;-81
2023/10/05 04:43:57;;;;;;;10.02;2.20;;;14.00;99.90;;;;;;4956202;28;20626;-81
2023/10/05 04:46:24;;;;;;;10.52;2.67;;;14.00;99.90;;;;;;4993805;28;20062;-81
2023/10/05 04:48:56;;;;;;;7.05;2.15;;;14.00;99.90;;;;;;4978818;28;20367;-82
2023/10/05 04:51:30;;;;;;;8.57;2.47;;;14.00;99.90;;;;;;4978695;28;20166;-82
2023/10/05 04:53:59;;;;;;;8.32;2.13;;;14.00;99.90;;;;;;4956918;28;20035;-81
2023/10/05 04:56:40;;;;;;;9.63;2.50;;;13.90;99.90;;;;;;4978395;28;20039;-80
2023/10/05 05:07:12;;;;;;;9.52;2.33;;;14.00;99.90;;;;;;4981181;28;20268;-82
2023/10/05 05:09:42;;;;;;;10.20;2.58;;;14.00;99.90;;;;;;4976566;28;20047;-81
2023/10/05 05:12:20;;;;;;;7.80;2.22;;;14.00;99.90;;;;;;4947753;28;20049;-82
2023/10/05 05:14:49;;;;;;;8.45;2.38;;;14.00;99.90;;;;;;4995315;28;20043;-81
2023/10/05 05:17:19;;;;;;;8.98;2.50;;;14.00;99.90;;;;;;4975837;28;20058;-81
2023/10/05 05:19:46;;;;;;;8.93;2.20;;;14.00;99.90;;;;;;4977164;28;20071;-81
2023/10/05 05:22:13;;;;;;;8.45;2.33;;;13.90;99.90;;;;;;4936196;28;20373;-82
2023/10/05 05:24:39;;;;;;;8.30;2.17;;;14.00;99.90;;;;;;4978326;28;20039;-81
2023/10/05 05:27:21;;;;;;;10.00;2.28;;;14.00;99.90;;;;;;4952461;28;20129;-82
2023/10/05 05:29:48;;;;;;;8.18;2.10;;;13.90;99.90;;;;;;4983107;28;20051;-82
2023/10/05 05:32:14;;;;;;;7.72;2.33;;;14.00;99.90;;;;;;4966275;28;20056;-82
2023/10/05 05:34:50;;;;;;;10.32;2.38;;;14.00;99.90;;;;;;4966281;28;20497;-82
2023/10/05 05:37:28;;;;;;;8.05;2.47;;;14.00;99.90;;;;;;4982563;28;20047;-82
2023/10/05 05:40:03;;;;;;;8.57;2.45;;;14.00;99.90;;;;;;4965141;28;20058;-82
2023/10/05 05:42:30;;;;;;;11.70;2.30;;;14.00;99.90;;;;;;4979295;28;20054;-81
2023/10/05 05:44:56;;;;;;;12.57;2.75;;;14.10;99.90;;;;;;4948697;28;20287;-82
2023/10/05 05:47:22;;;;;;;9.63;2.45;;;14.10;99.90;;;;;;4949567;28;20687;-82
2023/10/05 05:49:48;;;;;;;6.28;2.17;;;14.10;99.90;;;;;;4931762;29;20039;-82
2023/10/05 05:52:14;;;;;;;10.82;2.50;;;14.10;99.90;;;;;;4962835;28;20047;-81
2023/10/05 05:54:41;;;;;;;7.90;2.00;;;14.10;99.90;;;;;;4983530;28;20036;-82
2023/10/05 05:57:11;;;;;;;8.95;2.13;;;14.10;99.90;;;;;;4962191;28;20047;-82
2023/10/05 05:59:41;;;;;;;8.52;2.20;;;14.10;99.90;;;;;;4948171;28;20042;-82
2023/10/05 06:02:12;;;;;;;10.43;2.55;;;14.10;99.90;;;;;;4961718;28;20061;-82
2023/10/05 06:04:40;;;;;;;9.95;2.70;;;14.20;99.90;;;;;;4982034;28;20102;-82
2023/10/05 06:07:13;;;;;;;9.10;2.00;;;14.20;99.90;;;;;;4964352;28;20507;-81
2023/10/05 06:09:45;;;;;;;11.57;2.25;;;14.20;99.90;;;;;;4978430;28;20061;-82
2023/10/05 06:12:12;;;;;;;10.65;2.70;;;14.30;99.90;;;;;;4960475;28;20422;-82
2023/10/05 06:14:42;;;;;;;8.52;2.47;;;14.30;99.90;;;;;;4958154;28;20302;-81
2023/10/05 06:17:08;;;;;;;11.32;3.35;;;14.40;99.90;;;;;;4976905;28;20036;-82
2023/10/05 06:19:36;;;;;;;8.25;2.50;;;14.40;99.90;;;;;;4976609;28;20042;-82
2023/10/05 06:22:04;;;;;;;9.80;2.50;;;14.40;99.90;;;;;;4976945;28;20062;-81
2023/10/05 06:24:30;;;;;;;11.30;2.67;;;14.40;99.90;;;;;;4945633;28;20441;-82
2023/10/05 06:26:56;;;;;;;10.23;2.60;;;14.40;99.90;;;;;;4975622;28;20039;-82
2023/10/05 06:29:22;;;;;;;9.75;2.70;;;14.50;99.90;;;;;;4945297;28;20537;-82
2023/10/05 06:31:47;;;;;;;8.65;2.40;;;14.50;99.90;;;;;;4976954;28;20199;-81
2023/10/05 06:34:13;;;;;;;9.48;2.50;;;14.50;99.90;;;;;;4961602;28;20035;-82
2023/10/05 06:36:39;;;;;;;9.85;2.75;;;14.50;99.90;;;;;;4962685;28;20042;-81
2023/10/05 06:39:14;;;;;;;10.45;2.47;;;14.60;99.90;;;;;;4960974;28;20489;-82
2023/10/05 06:41:45;;;;;;;8.55;2.08;;;14.60;99.90;;;;;;4959039;28;20098;-81
2023/10/05 06:44:11;;;;;;;11.45;2.78;;;14.60;99.90;;;;;;4959909;28;20167;-82
2023/10/05 06:46:40;;;;;;;8.73;2.70;;;14.60;99.90;;;;;;4972575;28;20106;-81
2023/10/05 06:49:06;;;;;;;11.60;2.53;;;14.70;99.90;;;;;;4977081;28;20150;-82
2023/10/05 06:51:32;;;;;;;7.30;2.13;;;14.70;99.90;;;;;;4960924;28;20158;-82
2023/10/05 06:53:57;;;;;;;8.65;2.28;;;14.70;99.90;;;;;;4961083;28;20118;-82
2023/10/05 06:56:24;;;;;;;11.48;2.70;;;14.70;99.90;;;;;;4959933;28;20047;-81
2023/10/05 06:58:50;;;;;;;9.02;2.55;;;14.80;99.90;;;;;;4979844;28;20035;-81
2023/10/05 07:01:20;;;;;;;9.32;2.60;;;14.80;99.90;;;;;;4957958;28;20047;-81
2023/10/05 07:03:52;;;;;;;10.18;2.60;;;14.80;99.90;;;;;;4952089;28;20050;-82
2023/10/05 07:06:29;;;;;;;9.65;2.60;;;14.80;99.90;;;;;;4982197;28;20043;-81
2023/10/05 07:08:56;;;;;;;7.88;2.28;;;14.90;99.90;;;;;;4999911;28;20043;-82
2023/10/05 07:11:23;;;;;;;10.50;2.67;;;14.90;99.90;;;;;;4983867;28;20118;-82
2023/10/05 07:13:49;;;;;;;9.60;2.40;;;14.90;99.90;;;;;;4968695;28;20119;-82
2023/10/05 07:16:15;;;;;;;10.23;2.70;;;15.00;99.90;;;;;;4952504;28;20078;-82
2023/10/05 07:18:42;;;;;;;9.52;2.83;;;15.00;99.90;;;;;;4967819;28;20035;-82
2023/10/05 07:21:08;;;;;;;9.73;2.50;;;15.00;99.90;;;;;;4967593;28;20118;-82
2023/10/05 07:23:38;;;;;;;9.82;2.65;;;15.10;99.90;;;;;;4968225;28;20075;-82
2023/10/05 07:26:11;;;;;;;9.50;2.53;;;15.10;99.90;;;;;;4984448;28;20043;-82
2023/10/05 07:28:38;;;;;;;8.95;2.70;;;15.20;99.90;;;;;;4968007;28;20105;-82
2023/10/05 07:31:04;;;;;;;11.05;2.72;;;15.20;99.90;;;;;;4982255;28;20059;-82
2023/10/05 07:33:30;;;;;;;8.98;2.63;;;15.30;99.90;;;;;;4983566;28;20527;-82
2023/10/05 07:35:56;;;;;;;12.00;2.70;;;15.30;99.90;;;;;;4968821;28;20445;-83
2023/10/05 07:38:28;;;;;;;8.20;2.20;;;15.30;99.90;;;;;;4984784;28;20126;-82
2023/10/05 07:40:54;;;;;;;9.65;2.65;;;15.30;99.90;;;;;;4981160;28;20027;-82
2023/10/05 07:43:20;;;;;;;10.68;2.60;;;15.40;99.90;;;;;;4952100;28;20074;-82
2023/10/05 07:45:46;;;;;;;12.48;2.63;;;15.40;99.90;;;;;;4982661;28;20047;-82
2023/10/05 07:48:12;;;;;;;11.88;2.97;;;15.40;99.90;;;;;;4952327;29;20051;-83
2023/10/05 07:50:38;;;;;;;11.57;2.55;;;15.40;99.90;;;;;;4968529;28;20035;-83
2023/10/05 07:53:04;;;;;;;13.15;2.83;;;15.40;99.90;;;;;;4964200;28;20040;-82
2023/10/05 07:55:31;;;;;;;12.85;2.53;;;15.40;99.90;;;;;;4967726;28;20406;-82
2023/10/05 07:57:57;;;;;;;9.55;2.55;;;15.40;99.90;;;;;;4966678;28;20118;-82
2023/10/05 08:00:23;;;;;;;9.73;2.67;;;15.40;99.90;;;;;;4993709;28;20051;-82
2023/10/05 08:02:48;;;;;;;8.82;2.28;;;15.40;99.90;;;;;;4969620;28;20043;-82
2023/10/05 08:05:17;;;;;;;10.20;2.30;;;15.40;99.90;;;;;;4983082;28;20050;-82
2023/10/05 08:07:46;;;;;;;9.30;2.60;;;15.40;99.90;;;;;;4969211;28;20038;-82
2023/10/05 08:10:15;;;;;;;8.23;2.22;;;15.40;99.90;;;;;;4967699;28;20050;-83
2023/10/05 08:12:42;;;;;;;8.18;2.38;;;15.30;99.90;;;;;;4983967;28;20062;-83
2023/10/05 08:15:08;;;;;;;9.27;2.38;;;15.20;99.90;;;;;;4966893;28;20047;-84
2023/10/05 08:17:34;;;;;;;9.25;2.67;;;15.20;99.90;;;;;;5000011;28;20414;-85
2023/10/05 08:19:59;;;;;;;9.82;2.60;;;15.20;99.90;;;;;;4980543;28;20043;-85
2023/10/05 08:22:26;;;;;;;9.43;2.83;;;15.10;99.90;;;;;;4951011;28;20043;-85
2023/10/05 08:24:53;;;;;;;10.07;2.22;;;15.10;99.90;;;;;;4967784;28;20066;-87
2023/10/05 08:27:19;;;;;;;10.77;2.55;;;15.10;99.90;;;;;;4983398;28;20513;-85
2023/10/05 08:29:45;;;;;;;8.30;2.30;;;15.10;99.90;;;;;;4967602;28;20047;-85
2023/10/05 08:32:16;;;;;;;8.05;2.50;;;15.10;99.90;;;;;;4999967;28;20498;-87
2023/10/05 08:34:44;;;;;;;8.52;2.22;;;15.20;99.90;;;;;;4983281;28;20117;-85
2023/10/05 08:37:11;;;;;;;10.65;2.50;;;15.20;99.90;;;;;;4967005;28;20043;-85
2023/10/05 08:39:37;;;;;;;10.35;2.58;;;15.10;99.90;;;;;;4969468;28;20113;-85
2023/10/05 08:42:07;;;;;;;7.43;2.38;;;15.10;99.90;;;;;;4949433;28;20386;-85
2023/10/05 08:44:38;;;;;;;10.52;2.92;;;15.20;99.90;;;;;;4966223;28;20055;-85
2023/10/05 08:47:13;;;;;;;8.73;2.38;;;15.10;99.90;;;;;;4983260;28;20086;-85
2023/10/05 08:49:43;;;;;;;9.98;2.60;;;15.20;99.90;;;;;;4982481;28;20050;-85
2023/10/05 08:52:20;;;;;;;10.80;2.47;;;15.20;99.90;;;;;;4983154;28;20046;-84
2023/10/05 08:54:46;;;;;;;9.20;2.30;;;15.10;99.90;;;;;;4982445;28;20082;-85
2023/10/05 08:57:13;;;;;;;9.10;2.50;;;15.10;99.90;;;;;;4965770;28;20046;-85
2023/10/05 08:59:45;;;;;;;9.73;2.40;;;15.10;99.90;;;;;;4983233;28;20114;-84
2023/10/05 09:02:11;;;;;;;9.27;2.33;;;15.10;99.90;;;;;;4951732;28;20050;-84
2023/10/05 09:04:43;;;;;;;7.07;2.13;;;15.10;99.90;;;;;;4965896;28;20043;-85
2023/10/05 09:07:27;;;;;;;10.05;2.80;;;15.10;99.90;;;;;;4999454;28;20224;-85
2023/10/05 09:09:56;;;;;;;10.70;2.60;;;15.20;99.90;;;;;;4983252;28;20536;-84
2023/10/05 09:12:34;;;;;;;8.73;2.20;;;15.20;99.90;;;;;;4951981;28;20387;-85
2023/10/05 09:15:28;;;;;;;11.00;2.70;;;15.20;99.90;;;;;;4949066;28;20198;-84
2023/10/05 09:17:57;;;;;;;7.72;2.25;;;15.30;99.90;;;;;;4981913;28;20054;-83
2023/10/05 09:20:30;;;;;;;9.32;2.42;;;15.30;99.90;;;;;;4966192;28;20047;-84
2023/10/05 09:22:56;;;;;;;9.32;2.40;;;15.40;99.90;;;;;;4983152;28;20047;-84
2023/10/05 09:25:31;;;;;;;10.18;2.53;;;15.50;99.90;;;;;;4965413;28;20074;-84
2023/10/05 09:27:59;;;;;;;9.35;2.40;;;15.50;99.90;;;;;;4994266;28;20039;-84
2023/10/05 09:30:30;;;;;;;7.55;2.20;;;15.50;99.90;;;;;;4965694;28;20047;-84
2023/10/05 09:33:06;;;;;;;10.23;2.90;;;15.40;99.90;;;;;;4949683;28;20043;-80
2023/10/05 09:35:33;;;;;;;7.82;2.28;;;15.40;99.90;;;;;;4950525;28;20075;-80
2023/10/05 09:37:59;;;;;;;8.75;2.20;;;15.30;99.90;;;;;;4977688;28;20043;-81
2023/10/05 09:40:26;;;;;;;7.63;1.98;;;15.30;99.90;;;;;;4965380;28;20062;-82
2023/10/05 09:42:55;;;;;;;7.32;2.08;;;15.30;99.90;;;;;;4966123;28;20098;-82
2023/10/05 09:45:23;;;;;;;8.38;2.53;;;15.40;99.90;;;;;;4982759;28;20465;-82
2023/10/05 09:47:53;;;;;;;7.80;2.08;;;15.40;99.90;;;;;;4948409;28;20445;-82
2023/10/05 09:50:21;;;;;;;7.28;2.10;;;15.40;99.90;;;;;;4965275;28;20062;-82
2023/10/05 09:52:48;;;;;;;7.65;2.13;;;15.40;99.90;;;;;;4965309;28;20166;-82
2023/10/05 09:55:18;;;;;;;8.05;2.10;;;15.50;99.90;;;;;;4966329;28;20502;-81
2023/10/05 09:57:46;;;;;;;8.25;2.10;;;15.50;99.90;;;;;;4949729;28;20517;-82
2023/10/05 10:00:47;;;;;;;7.22;2.40;;;15.60;99.90;;;;;;4975270;28;20505;-82
2023/10/05 10:03:15;;;;;;;7.05;2.10;;;15.60;99.90;;;;;;4979739;28;20598;-82
2023/10/05 10:06:09;;;;;;;6.28;2.00;;;15.60;99.90;;;;;;4966418;28;20126;-82
2023/10/05 10:08:50;;;;;;;7.35;2.30;;;15.70;99.90;;;;;;4964864;28;20084;-82
2023/10/05 10:11:18;;;;;;;7.75;1.92;;;15.80;99.90;;;;;;4941121;28;20073;-81
2023/10/05 10:14:09;;;;;;;8.52;2.40;;;15.80;99.90;;;;;;4939575;28;20039;-80
2023/10/05 10:16:42;;;;;;;6.18;1.92;;;15.90;99.90;;;;;;4976697;28;20183;-81
2023/10/05 10:19:23;;;;;;;7.13;2.08;;;16.00;99.90;;;;;;4982963;28;20043;-81
2023/10/05 10:21:57;;;;;;;8.32;2.35;;;16.10;99.90;;;;;;4981120;28;21315;-81
2023/10/05 10:24:28;;;;;;;7.65;2.20;;;16.10;99.90;;;;;;4980429;28;20054;-81
2023/10/05 10:27:08;;;;;;;8.02;2.20;;;16.20;99.90;;;;;;4977489;28;20557;-81
2023/10/05 10:29:55;;;;;;;7.18;2.55;;;16.30;99.90;;;;;;4950108;28;20445;-81
2023/10/05 10:32:32;;;;;;;7.82;2.33;;;16.40;99.90;;;;;;4963684;28;20055;-80
2023/10/05 10:35:26;;;;;;;7.85;2.30;;;16.50;99.90;;;;;;4968498;28;20095;-81
2023/10/05 10:37:54;;;;;;;7.90;2.60;;;16.60;99.90;;;;;;4976100;28;20118;-81
2023/10/05 10:45:46;;;;;;;7.53;2.22;;;16.90;99.90;;;;;;4984780;28;20053;-81
2023/10/05 10:48:20;;;;;;;7.57;2.38;;;17.10;99.90;;;;;;4963260;28;20087;-81
2023/10/05 10:50:47;;;;;;;7.43;2.55;;;17.30;99.90;;;;;;4981721;28;20495;-81
2023/10/05 10:53:16;;;;;;;6.97;2.10;;;16.90;99.90;;;;;;4983421;28;20078;-81
2023/10/05 10:56:03;;;;;;;10.75;2.60;;;17.60;99.90;;;;;;4953209;29;20039;-81
2023/10/05 10:58:31;;;;;;;9.00;2.35;;;17.50;99.90;;;;;;4987438;28;20100;-81
2023/10/05 11:01:13;;;;;;;7.57;2.10;;;17.50;99.90;;;;;;4952870;28;20035;-81
2023/10/05 11:03:41;;;;;;;6.85;2.10;;;17.50;99.90;;;;;;4969144;28;20051;-81
2023/10/05 11:06:09;;;;;;;8.55;2.45;;;17.50;99.90;;;;;;4985399;28;20039;-81
2023/10/05 11:08:40;;;;;;;7.18;2.00;;;17.50;99.90;;;;;;4985899;28;20505;-81
2023/10/05 11:11:19;;;;;;;9.65;2.50;;;17.30;99.90;;;;;;4976719;28;20571;-82
2023/10/05 11:13:54;;;;;;;6.30;2.03;;;17.20;99.90;;;;;;4984127;28;20043;-81
2023/10/05 11:16:21;;;;;;;7.45;2.50;;;17.00;99.90;;;;;;4980949;28;20122;-81
2023/10/05 11:18:57;;;;;;;7.13;2.15;;;16.90;99.90;;;;;;4966375;28;20037;-81
2023/10/05 11:21:26;;;;;;;6.72;2.15;;;16.80;99.90;;;;;;4951520;28;20055;-81
2023/10/05 11:24:01;;;;;;;5.78;2.00;;;16.70;99.90;;;;;;4968552;28;20057;-82
2023/10/05 11:26:35;;;;;;;7.47;2.10;;;16.70;99.90;;;;;;4952018;28;20372;-82
2023/10/05 11:29:10;;;;;;;4.80;1.60;;;16.70;99.90;;;;;;4982393;28;20101;-82
2023/10/05 11:31:37;;;;;;;8.18;2.20;;;16.90;99.90;;;;;;4982468;28;20047;-81
2023/10/05 11:34:09;;;;;;;7.18;1.90;;;17.00;99.90;;;;;;4980241;28;20039;-82
2023/10/05 11:36:39;;;;;;;5.55;1.90;;;17.00;99.90;;;;;;4981671;28;20583;-82
2023/10/05 11:39:08;;;;;;;8.07;2.20;;;17.10;99.90;;;;;;4963244;28;20122;-81
2023/10/05 11:41:34;;;;;;;6.93;2.10;;;17.10;99.90;;;;;;4982400;28;20524;-81
2023/10/05 11:44:01;;;;;;;7.97;2.20;;;17.20;99.90;;;;;;4981942;28;20424;-81
2023/10/05 11:46:46;;;;;;;7.50;2.20;;;17.20;99.90;;;;;;4981286;28;20047;-81
2023/10/05 11:49:15;;;;;;;8.10;1.92;;;17.30;99.90;;;;;;4983740;28;20118;-81
2023/10/05 11:51:54;;;;;;;8.73;2.38;;;17.20;99.90;;;;;;4982156;28;20039;-81
2023/10/05 11:54:24;;;;;;;7.50;2.17;;;17.20;99.90;;;;;;4982593;28;20291;-81
2023/10/05 11:56:50;;;;;;;5.90;1.90;;;17.10;99.90;;;;;;4948786;28;20480;-81
2023/10/05 11:59:28;;;;;;;5.90;1.75;;;17.00;99.90;;;;;;4964304;28;20047;-80
2023/10/05 12:01:55;;;;;;;7.68;1.67;;;16.90;99.90;;;;;;4978070;28;20031;-81
2023/10/05 12:04:23;;;;;;;5.05;1.63;;;16.90;99.90;;;;;;4976827;28;20417;-81
2023/10/05 12:06:58;;;;;;;6.13;1.67;;;17.00;99.90;;;;;;4978540;28;20036;-81
2023/10/05 12:09:30;;;;;;;8.35;1.80;;;16.90;99.90;;;;;;4993117;28;20102;-81
2023/10/05 12:11:58;;;;;;;4.95;1.77;;;16.90;99.90;;;;;;4976214;28;20043;-81
2023/10/05 12:14:27;;;;;;;4.60;1.65;;;16.90;99.90;;;;;;4962352;28;20046;-81
2023/10/05 12:16:56;;;;;;;5.30;1.73;;;16.90;99.90;;;;;;4964643;28;20118;-81
2023/10/05 12:19:28;;;;;;;6.68;1.75;;;17.00;99.90;;;;;;4945329;28;20043;-81
2023/10/05 12:21:55;;;;;;;6.43;1.80;;;16.90;99.90;;;;;;4978389;28;20031;-82
2023/10/05 12:24:21;;;;;;;5.85;1.60;;;16.90;99.90;;;;;;4977480;28;20094;-82
2023/10/05 12:26:47;;;;;;;6.15;1.65;;;17.00;99.90;;;;;;4994882;28;20070;-81
2023/10/05 12:29:13;;;;;;;6.40;1.98;;;17.00;99.90;;;;;;4961755;28;20246;-82
2023/10/05 12:31:40;;;;;;;5.30;1.60;;;16.90;99.90;;;;;;4963038;28;20035;-81
2023/10/05 12:34:14;;;;;;;6.32;1.90;;;17.00;99.90;;;;;;4960962;28;20498;-82
2023/10/05 12:36:49;;;;;;;5.97;1.60;;;17.00;99.90;;;;;;4977481;28;20486;-82
2023/10/05 12:39:26;;;;;;;7.45;1.92;;;17.10;99.90;;;;;;4929939;28;20104;-82
2023/10/05 12:41:54;;;;;;;7.43;2.13;;;17.20;99.90;;;;;;4959778;28;20110;-82
2023/10/05 12:44:20;;;;;;;7.07;2.03;;;17.20;99.90;;;;;;4981274;28;20090;-81
2023/10/05 12:46:47;;;;;;;5.95;1.88;;;17.30;99.90;;;;;;4959261;28;20493;-82
2023/10/05 12:49:14;;;;;;;8.48;2.15;;;17.30;99.90;;;;;;4992019;28;20073;-82
2023/10/05 12:51:41;;;;;;;4.93;1.60;;;17.20;99.90;;;;;;4962348;28;20137;-82
2023/10/05 12:54:28;;;;;;;6.55;2.00;;;17.30;99.90;;;;;;4973293;28;20047;-82
2023/10/05 12:56:54;;;;;;;7.65;1.90;;;17.30;99.90;;;;;;4976227;28;20035;-82
2023/10/05 12:59:21;;;;;;;8.07;1.77;;;17.20;99.90;;;;;;4961226;28;20075;-82
2023/10/05 13:01:47;;;;;;;4.10;1.70;;;17.10;99.90;;;;;;4978080;28;20035;-81
2023/10/05 13:04:17;;;;;;;6.68;1.85;;;17.00;99.90;;;;;;4946748;28;20165;-81
2023/10/05 13:06:45;;;;;;;4.15;1.42;;;16.80;99.90;;;;;;4963597;28;20126;-83
2023/10/05 13:09:13;;;;;;;4.53;1.50;;;16.60;99.90;;;;;;4991467;28;20087;-83
2023/10/05 13:11:45;;;;;;;6.30;1.92;;;16.40;99.90;;;;;;4963041;28;20097;-84
2023/10/05 13:14:15;;;;;;;5.38;1.70;;;16.20;99.90;;;;;;4961069;28;20098;-85
2023/10/05 13:16:42;;;;;;;6.15;1.60;;;16.10;99.90;;;;;;4958878;28;20083;-84
2023/10/05 13:19:12;;;;;;;5.22;1.60;;;16.00;99.90;;;;;;4977621;28;20031;-84
2023/10/05 13:21:45;;;;;;;5.00;1.60;;;16.00;99.90;;;;;;4961253;28;20042;-84
2023/10/05 13:24:12;;;;;;;5.38;1.75;;;16.00;99.90;;;;;;4977252;28;20027;-84
2023/10/05 13:26:44;;;;;;;8.68;2.05;;;16.00;99.90;;;;;;4960225;28;20074;-84